sensor_id;sensor_type;location;lat;lon;timestamp;pressure;altitude;pressure_sealevel;temperature;humidity
26657;BME280;14279;50.010;8.260;2023-04-08T00:01:00;100864.78;;;10.36;76.52
26657;BME280;14279;50.010;8.260;2023-04-08T00:03:25;100863.03;;;10.36;76.48
26657;BME280;14279;50.010;8.260;2023-04-08T00:05:50;100860.50;;;10.35;76.30
26657;BME280;14279;50.010;8.260;2023-04-08T00:08:16;100866.59;;;10.34;76.38
26657;BME280;14279;50.010;8.260;2023-04-08T00:10:41;100862.72;;;10.46;76.03
26657;BME280;14279;50.010;8.260;2023-04-08T00:13:06;100855.53;;;10.52;75.75
26657;BME280;14279;50.010;8.260;2023-04-08T00:15:31;100861.50;;;10.56;75.75
26657;BME280;14279;50.010;8.260;2023-04-08T00:17:57;100866.22;;;10.45;75.63
26657;BME280;14279;50.010;8.260;2023-04-08T00:20:23;100864.88;;;10.34;76.02
26657;BME280;14279;50.010;8.260;2023-04-08T00:22:48;100862.94;;;10.40;76.03
26657;BME280;14279;50.010;8.260;2023-04-08T00:25:38;100869.13;;;10.12;76.64
26657;BME280;14279;50.010;8.260;2023-04-08T00:28:04;100861.72;;;10.25;76.20
26657;BME280;14279;50.010;8.260;2023-04-08T00:30:29;100865.09;;;10.28;75.94
26657;BME280;14279;50.010;8.260;2023-04-08T00:32:55;100873.81;;;10.02;76.42
26657;BME280;14279;50.010;8.260;2023-04-08T00:35:20;100869.00;;;9.91;76.94
26657;BME280;14279;50.010;8.260;2023-04-08T00:37:45;100866.00;;;10.02;76.98
26657;BME280;14279;50.010;8.260;2023-04-08T00:40:12;100865.34;;;9.97;76.42
26657;BME280;14279;50.010;8.260;2023-04-08T00:42:37;100871.00;;;10.08;76.40
26657;BME280;14279;50.010;8.260;2023-04-08T00:45:03;100871.66;;;9.89;77.10
26657;BME280;14279;50.010;8.260;2023-04-08T00:47:29;100870.28;;;10.04;77.13
26657;BME280;14279;50.010;8.260;2023-04-08T00:49:54;100859.81;;;10.30;76.24
26657;BME280;14279;50.010;8.260;2023-04-08T00:52:20;100871.09;;;10.30;76.36
26657;BME280;14279;50.010;8.260;2023-04-08T00:54:45;100866.03;;;10.26;76.66
26657;BME280;14279;50.010;8.260;2023-04-08T00:57:11;100862.69;;;10.22;76.84
26657;BME280;14279;50.010;8.260;2023-04-08T00:59:36;100867.97;;;10.20;76.64
26657;BME280;14279;50.010;8.260;2023-04-08T01:04:59;100882.41;;;10.04;76.61
26657;BME280;14279;50.010;8.260;2023-04-08T01:07:30;100880.25;;;9.91;76.97
26657;BME280;14279;50.010;8.260;2023-04-08T01:09:59;100886.47;;;9.87;77.09
26657;BME280;14279;50.010;8.260;2023-04-08T01:12:29;100881.16;;;9.90;77.04
26657;BME280;14279;50.010;8.260;2023-04-08T01:15:02;100878.59;;;9.89;77.15
26657;BME280;14279;50.010;8.260;2023-04-08T01:17:29;100878.50;;;9.92;77.25
26657;BME280;14279;50.010;8.260;2023-04-08T01:19:57;100874.56;;;10.05;76.43
26657;BME280;14279;50.010;8.260;2023-04-08T01:25:13;100877.72;;;10.14;76.18
26657;BME280;14279;50.010;8.260;2023-04-08T01:27:41;100876.22;;;10.08;76.53
26657;BME280;14279;50.010;8.260;2023-04-08T01:30:08;100876.56;;;10.22;75.77
26657;BME280;14279;50.010;8.260;2023-04-08T01:32:34;100879.88;;;10.02;76.60
26657;BME280;14279;50.010;8.260;2023-04-08T01:35:01;100879.44;;;10.15;76.25
26657;BME280;14279;50.010;8.260;2023-04-08T01:37:28;100877.88;;;10.11;76.27
26657;BME280;14279;50.010;8.260;2023-04-08T01:39:55;100870.97;;;10.10;76.21
26657;BME280;14279;50.010;8.260;2023-04-08T01:42:26;100875.59;;;10.01;76.14
26657;BME280;14279;50.010;8.260;2023-04-08T01:44:55;100872.88;;;10.04;76.51
26657;BME280;14279;50.010;8.260;2023-04-08T01:47:21;100869.38;;;10.05;76.62
26657;BME280;14279;50.010;8.260;2023-04-08T01:49:48;100871.94;;;9.82;77.03
26657;BME280;14279;50.010;8.260;2023-04-08T01:52:15;100872.78;;;9.82;77.48
26657;BME280;14279;50.010;8.260;2023-04-08T01:54:42;100870.50;;;9.98;76.78
26657;BME280;14279;50.010;8.260;2023-04-08T01:57:11;100873.75;;;9.80;77.66
26657;BME280;14279;50.010;8.260;2023-04-08T01:59:37;100872.50;;;9.65;78.47
26657;BME280;14279;50.010;8.260;2023-04-08T02:02:05;100874.41;;;9.59;78.73
26657;BME280;14279;50.010;8.260;2023-04-08T02:04:34;100874.38;;;9.61;79.10
26657;BME280;14279;50.010;8.260;2023-04-08T02:07:00;100876.50;;;9.75;78.63
26657;BME280;14279;50.010;8.260;2023-04-08T02:09:25;100869.91;;;9.65;78.72
26657;BME280;14279;50.010;8.260;2023-04-08T02:11:51;100878.25;;;9.74;78.55
26657;BME280;14279;50.010;8.260;2023-04-08T02:14:16;100872.22;;;9.74;78.54
26657;BME280;14279;50.010;8.260;2023-04-08T02:16:49;100881.56;;;9.78;77.95
26657;BME280;14279;50.010;8.260;2023-04-08T02:22:44;100881.16;;;9.90;77.75
26657;BME280;14279;50.010;8.260;2023-04-08T02:25:13;100881.38;;;9.84;78.25
26657;BME280;14279;50.010;8.260;2023-04-08T02:27:40;100877.13;;;9.82;78.34
26657;BME280;14279;50.010;8.260;2023-04-08T02:30:07;100883.06;;;9.85;78.13
26657;BME280;14279;50.010;8.260;2023-04-08T02:32:33;100881.97;;;9.92;77.52
26657;BME280;14279;50.010;8.260;2023-04-08T02:35:00;100881.19;;;9.89;77.66
26657;BME280;14279;50.010;8.260;2023-04-08T02:37:28;100882.69;;;9.96;77.59
26657;BME280;14279;50.010;8.260;2023-04-08T02:39:53;100879.69;;;10.08;77.16
26657;BME280;14279;50.010;8.260;2023-04-08T02:42:18;100886.16;;;9.97;77.32
26657;BME280;14279;50.010;8.260;2023-04-08T02:44:44;100877.31;;;10.01;77.34
26657;BME280;14279;50.010;8.260;2023-04-08T02:47:09;100885.81;;;10.06;76.81
26657;BME280;14279;50.010;8.260;2023-04-08T02:49:35;100882.28;;;10.08;77.19
26657;BME280;14279;50.010;8.260;2023-04-08T02:52:00;100884.22;;;10.02;77.21
26657;BME280;14279;50.010;8.260;2023-04-08T02:54:25;100885.13;;;10.01;77.43
26657;BME280;14279;50.010;8.260;2023-04-08T02:56:50;100886.69;;;9.81;77.97
26657;BME280;14279;50.010;8.260;2023-04-08T02:59:15;100885.97;;;9.76;78.30
26657;BME280;14279;50.010;8.260;2023-04-08T03:01:41;100889.28;;;9.81;77.89
26657;BME280;14279;50.010;8.260;2023-04-08T03:04:07;100889.00;;;9.89;77.96
26657;BME280;14279;50.010;8.260;2023-04-08T03:06:32;100896.69;;;9.92;78.08
26657;BME280;14279;50.010;8.260;2023-04-08T03:08:57;100895.28;;;9.83;78.94
26657;BME280;14279;50.010;8.260;2023-04-08T03:11:26;100893.47;;;9.85;79.15
26657;BME280;14279;50.010;8.260;2023-04-08T03:13:51;100894.28;;;9.87;79.19
26657;BME280;14279;50.010;8.260;2023-04-08T03:16:16;100893.53;;;9.84;78.92
26657;BME280;14279;50.010;8.260;2023-04-08T03:18:53;100895.09;;;9.88;78.81
26657;BME280;14279;50.010;8.260;2023-04-08T03:21:19;100897.78;;;9.86;78.58
26657;BME280;14279;50.010;8.260;2023-04-08T03:23:45;100894.56;;;9.78;78.52
26657;BME280;14279;50.010;8.260;2023-04-08T03:26:13;100903.34;;;9.75;78.62
26657;BME280;14279;50.010;8.260;2023-04-08T03:28:39;100900.00;;;9.72;78.94
26657;BME280;14279;50.010;8.260;2023-04-08T03:31:05;100901.66;;;9.74;79.02
26657;BME280;14279;50.010;8.260;2023-04-08T03:33:30;100902.06;;;9.62;79.00
26657;BME280;14279;50.010;8.260;2023-04-08T03:35:55;100905.50;;;9.62;79.11
26657;BME280;14279;50.010;8.260;2023-04-08T03:38:20;100910.31;;;9.48;79.20
26657;BME280;14279;50.010;8.260;2023-04-08T03:40:46;100908.66;;;9.45;79.60
26657;BME280;14279;50.010;8.260;2023-04-08T03:43:12;100906.25;;;9.39;79.11
26657;BME280;14279;50.010;8.260;2023-04-08T03:45:38;100911.69;;;9.31;78.77
26657;BME280;14279;50.010;8.260;2023-04-08T03:48:03;100908.63;;;9.20;78.83
26657;BME280;14279;50.010;8.260;2023-04-08T03:50:29;100916.34;;;9.22;78.97
26657;BME280;14279;50.010;8.260;2023-04-08T03:52:54;100912.09;;;9.19;78.95
26657;BME280;14279;50.010;8.260;2023-04-08T03:55:19;100920.16;;;9.11;79.73
26657;BME280;14279;50.010;8.260;2023-04-08T03:57:44;100920.19;;;9.10;79.21
26657;BME280;14279;50.010;8.260;2023-04-08T04:00:10;100920.19;;;9.10;79.67
26657;BME280;14279;50.010;8.260;2023-04-08T04:02:35;100922.69;;;9.13;79.92
26657;BME280;14279;50.010;8.260;2023-04-08T04:05:01;100917.59;;;8.80;80.13
26657;BME280;14279;50.010;8.260;2023-04-08T04:07:26;100925.13;;;8.89;80.17
26657;BME280;14279;50.010;8.260;2023-04-08T04:09:51;100920.75;;;8.91;79.72
26657;BME280;14279;50.010;8.260;2023-04-08T04:12:20;100926.91;;;8.89;80.85
26657;BME280;14279;50.010;8.260;2023-04-08T04:14:45;100923.09;;;8.99;80.35
26657;BME280;14279;50.010;8.260;2023-04-08T04:17:10;100922.78;;;8.81;80.84
26657;BME280;14279;50.010;8.260;2023-04-08T04:19:36;100928.38;;;8.67;80.44
26657;BME280;14279;50.010;8.260;2023-04-08T04:22:01;100927.88;;;8.54;80.95
26657;BME280;14279;50.010;8.260;2023-04-08T04:24:26;100920.72;;;8.63;80.32
26657;BME280;14279;50.010;8.260;2023-04-08T04:26:51;100933.19;;;8.50;81.41
26657;BME280;14279;50.010;8.260;2023-04-08T04:29:16;100925.03;;;8.62;80.46
26657;BME280;14279;50.010;8.260;2023-04-08T04:31:42;100937.09;;;8.65;80.31
26657;BME280;14279;50.010;8.260;2023-04-08T04:34:07;100931.78;;;8.69;80.46
26657;BME280;14279;50.010;8.260;2023-04-08T04:36:32;100935.09;;;8.75;79.89
26657;BME280;14279;50.010;8.260;2023-04-08T04:38:57;100934.31;;;8.71;79.82
26657;BME280;14279;50.010;8.260;2023-04-08T04:41:23;100939.63;;;8.66;80.15
26657;BME280;14279;50.010;8.260;2023-04-08T04:43:48;100938.38;;;8.80;79.70
26657;BME280;14279;50.010;8.260;2023-04-08T04:46:13;100939.50;;;8.71;79.96
26657;BME280;14279;50.010;8.260;2023-04-08T04:48:38;100943.22;;;8.62;80.30
26657;BME280;14279;50.010;8.260;2023-04-08T04:51:03;100939.69;;;8.65;79.84
26657;BME280;14279;50.010;8.260;2023-04-08T04:53:29;100945.72;;;8.65;79.81
26657;BME280;14279;50.010;8.260;2023-04-08T04:55:55;100946.63;;;8.64;79.46
26657;BME280;14279;50.010;8.260;2023-04-08T04:58:20;100948.81;;;8.47;79.65
26657;BME280;14279;50.010;8.260;2023-04-08T05:00:46;100956.75;;;8.42;80.36
26657;BME280;14279;50.010;8.260;2023-04-08T05:03:12;100944.47;;;8.47;79.82
26657;BME280;14279;50.010;8.260;2023-04-08T05:05:37;100953.13;;;8.48;79.99
26657;BME280;14279;50.010;8.260;2023-04-08T05:08:02;100955.66;;;8.51;79.79
26657;BME280;14279;50.010;8.260;2023-04-08T05:10:28;100952.38;;;8.76;78.24
26657;BME280;14279;50.010;8.260;2023-04-08T05:12:53;100956.53;;;8.81;77.95
26657;BME280;14279;50.010;8.260;2023-04-08T05:15:18;100956.28;;;8.89;77.94
26657;BME280;14279;50.010;8.260;2023-04-08T05:17:43;100956.59;;;8.78;77.73
26657;BME280;14279;50.010;8.260;2023-04-08T05:20:10;100964.16;;;8.86;77.77
26657;BME280;14279;50.010;8.260;2023-04-08T05:22:36;100963.25;;;8.89;77.98
26657;BME280;14279;50.010;8.260;2023-04-08T05:25:01;100963.13;;;8.92;77.67
26657;BME280;14279;50.010;8.260;2023-04-08T05:27:26;100961.03;;;8.75;77.49
26657;BME280;14279;50.010;8.260;2023-04-08T05:29:51;100971.03;;;8.89;77.15
26657;BME280;14279;50.010;8.260;2023-04-08T05:32:17;100967.56;;;8.88;76.99
26657;BME280;14279;50.010;8.260;2023-04-08T05:34:43;100959.25;;;8.77;77.55
26657;BME280;14279;50.010;8.260;2023-04-08T05:37:08;100966.50;;;8.95;76.51
26657;BME280;14279;50.010;8.260;2023-04-08T05:39:33;100972.34;;;9.02;76.83
26657;BME280;14279;50.010;8.260;2023-04-08T05:41:59;100974.13;;;9.01;77.01
26657;BME280;14279;50.010;8.260;2023-04-08T05:44:24;100978.69;;;8.93;76.89
26657;BME280;14279;50.010;8.260;2023-04-08T05:46:49;100982.41;;;9.13;76.71
26657;BME280;14279;50.010;8.260;2023-04-08T05:49:15;100979.72;;;9.16;76.91
26657;BME280;14279;50.010;8.260;2023-04-08T05:51:41;100979.25;;;9.31;76.13
26657;BME280;14279;50.010;8.260;2023-04-08T05:54:07;100972.78;;;9.45;75.57
26657;BME280;14279;50.010;8.260;2023-04-08T05:56:32;100983.13;;;9.46;74.60
26657;BME280;14279;50.010;8.260;2023-04-08T05:58:58;100985.59;;;8.93;75.20
26657;BME280;14279;50.010;8.260;2023-04-08T06:01:24;100991.91;;;8.54;76.71
26657;BME280;14279;50.010;8.260;2023-04-08T06:03:49;100998.69;;;8.25;77.09
26657;BME280;14279;50.010;8.260;2023-04-08T06:06:16;101005.03;;;8.46;76.63
26657;BME280;14279;50.010;8.260;2023-04-08T06:08:42;101011.81;;;8.53;76.59
26657;BME280;14279;50.010;8.260;2023-04-08T06:11:07;101003.59;;;8.69;76.29
26657;BME280;14279;50.010;8.260;2023-04-08T06:13:32;101001.63;;;8.44;76.94
26657;BME280;14279;50.010;8.260;2023-04-08T06:23:20;101012.50;;;8.90;75.70
26657;BME280;14279;50.010;8.260;2023-04-08T06:39:41;101027.16;;;8.61;74.63
26657;BME280;14279;50.010;8.260;2023-04-08T06:42:37;101030.91;;;8.51;75.59
26657;BME280;14279;50.010;8.260;2023-04-08T06:45:07;101026.03;;;8.71;74.76
26657;BME280;14279;50.010;8.260;2023-04-08T06:47:32;101038.47;;;8.90;74.07
26657;BME280;14279;50.010;8.260;2023-04-08T06:49:58;101036.84;;;8.87;74.59
26657;BME280;14279;50.010;8.260;2023-04-08T06:52:23;101037.28;;;9.02;73.29
26657;BME280;14279;50.010;8.260;2023-04-08T06:54:48;101040.34;;;8.85;73.76
26657;BME280;14279;50.010;8.260;2023-04-08T06:57:14;101034.94;;;8.93;73.48
26657;BME280;14279;50.010;8.260;2023-04-08T06:59:39;101044.03;;;9.08;73.30
26657;BME280;14279;50.010;8.260;2023-04-08T07:02:04;101036.56;;;9.27;73.22
26657;BME280;14279;50.010;8.260;2023-04-08T07:04:29;101045.75;;;9.09;73.06
26657;BME280;14279;50.010;8.260;2023-04-08T07:06:55;101047.41;;;9.11;72.67
26657;BME280;14279;50.010;8.260;2023-04-08T07:09:20;101045.47;;;9.18;72.55
26657;BME280;14279;50.010;8.260;2023-04-08T07:11:45;101048.31;;;9.10;72.35
26657;BME280;14279;50.010;8.260;2023-04-08T07:14:11;101051.91;;;9.05;72.90
26657;BME280;14279;50.010;8.260;2023-04-08T07:16:36;101055.16;;;9.13;72.46
26657;BME280;14279;50.010;8.260;2023-04-08T07:19:01;101052.97;;;9.29;72.18
26657;BME280;14279;50.010;8.260;2023-04-08T07:21:26;101060.53;;;9.37;72.38
26657;BME280;14279;50.010;8.260;2023-04-08T07:23:52;101053.13;;;9.53;72.46
26657;BME280;14279;50.010;8.260;2023-04-08T07:26:17;101055.75;;;9.51;72.66
26657;BME280;14279;50.010;8.260;2023-04-08T07:28:43;101059.03;;;9.58;72.07
26657;BME280;14279;50.010;8.260;2023-04-08T07:31:26;101058.59;;;9.72;71.25
26657;BME280;14279;50.010;8.260;2023-04-08T07:34:15;101066.09;;;10.08;70.16
26657;BME280;14279;50.010;8.260;2023-04-08T07:36:46;101070.13;;;10.18;70.05
26657;BME280;14279;50.010;8.260;2023-04-08T07:39:11;101067.00;;;10.07;69.86
26657;BME280;14279;50.010;8.260;2023-04-08T07:41:37;101071.53;;;9.73;70.67
26657;BME280;14279;50.010;8.260;2023-04-08T07:44:02;101068.72;;;10.08;70.21
26657;BME280;14279;50.010;8.260;2023-04-08T07:46:27;101065.94;;;10.13;69.96
26657;BME280;14279;50.010;8.260;2023-04-08T07:52:26;101075.09;;;10.25;69.80
26657;BME280;14279;50.010;8.260;2023-04-08T07:54:51;101072.63;;;10.21;69.22
26657;BME280;14279;50.010;8.260;2023-04-08T07:57:19;101073.56;;;10.46;69.15
26657;BME280;14279;50.010;8.260;2023-04-08T07:59:45;101075.63;;;10.61;68.20
26657;BME280;14279;50.010;8.260;2023-04-08T08:02:17;101079.41;;;10.78;66.45
26657;BME280;14279;50.010;8.260;2023-04-08T08:04:45;101084.06;;;10.93;65.92
26657;BME280;14279;50.010;8.260;2023-04-08T08:12:50;101094.28;;;10.49;67.83
26657;BME280;14279;50.010;8.260;2023-04-08T08:15:19;101099.59;;;10.46;67.58
26657;BME280;14279;50.010;8.260;2023-04-08T08:17:44;101094.31;;;10.47;67.78
26657;BME280;14279;50.010;8.260;2023-04-08T08:20:10;101096.31;;;10.66;67.30
26657;BME280;14279;50.010;8.260;2023-04-08T08:22:35;101098.97;;;10.90;66.64
26657;BME280;14279;50.010;8.260;2023-04-08T08:25:04;101100.03;;;11.08;66.16
26657;BME280;14279;50.010;8.260;2023-04-08T08:27:29;101106.28;;;11.04;66.17
26657;BME280;14279;50.010;8.260;2023-04-08T08:30:01;101103.63;;;11.29;64.73
26657;BME280;14279;50.010;8.260;2023-04-08T08:32:27;101105.63;;;11.21;65.16
26657;BME280;14279;50.010;8.260;2023-04-08T08:34:53;101109.81;;;11.01;65.59
26657;BME280;14279;50.010;8.260;2023-04-08T08:37:18;101104.13;;;11.15;65.68
26657;BME280;14279;50.010;8.260;2023-04-08T08:39:43;101110.69;;;11.25;65.94
26657;BME280;14279;50.010;8.260;2023-04-08T08:42:24;101110.84;;;11.21;65.88
26657;BME280;14279;50.010;8.260;2023-04-08T08:44:50;101118.00;;;11.16;65.75
26657;BME280;14279;50.010;8.260;2023-04-08T08:47:16;101123.13;;;11.19;65.46
26657;BME280;14279;50.010;8.260;2023-04-08T08:49:42;101119.81;;;11.37;65.16
26657;BME280;14279;50.010;8.260;2023-04-08T08:52:07;101115.84;;;11.51;64.50
26657;BME280;14279;50.010;8.260;2023-04-08T08:54:33;101120.94;;;11.30;65.07
26657;BME280;14279;50.010;8.260;2023-04-08T08:56:58;101124.13;;;11.38;65.32
26657;BME280;14279;50.010;8.260;2023-04-08T08:59:23;101128.59;;;11.35;65.41
26657;BME280;14279;50.010;8.260;2023-04-08T09:16:00;101135.00;;;11.26;66.02
26657;BME280;14279;50.010;8.260;2023-04-08T09:25:22;101138.09;;;11.12;66.74
26657;BME280;14279;50.010;8.260;2023-04-08T09:27:48;101142.50;;;11.10;66.32
26657;BME280;14279;50.010;8.260;2023-04-08T09:30:14;101151.78;;;10.93;67.15
26657;BME280;14279;50.010;8.260;2023-04-08T09:32:53;101148.09;;;10.99;67.12
26657;BME280;14279;50.010;8.260;2023-04-08T09:35:19;101152.91;;;10.86;67.39
26657;BME280;14279;50.010;8.260;2023-04-08T09:37:45;101148.28;;;10.94;67.30
26657;BME280;14279;50.010;8.260;2023-04-08T09:40:12;101156.78;;;11.00;67.27
26657;BME280;14279;50.010;8.260;2023-04-08T09:42:40;101154.63;;;11.11;67.03
26657;BME280;14279;50.010;8.260;2023-04-08T09:45:08;101152.22;;;11.06;67.18
26657;BME280;14279;50.010;8.260;2023-04-08T09:47:49;101156.78;;;11.00;67.49
26657;BME280;14279;50.010;8.260;2023-04-08T09:50:18;101158.56;;;11.23;66.81
26657;BME280;14279;50.010;8.260;2023-04-08T09:52:49;101161.03;;;11.27;66.65
26657;BME280;14279;50.010;8.260;2023-04-08T09:55:21;101158.56;;;11.23;66.65
26657;BME280;14279;50.010;8.260;2023-04-08T09:57:54;101164.25;;;11.34;66.47
26657;BME280;14279;50.010;8.260;2023-04-08T10:00:35;101161.06;;;11.26;66.88
26657;BME280;14279;50.010;8.260;2023-04-08T10:03:09;101160.28;;;11.48;66.11
26657;BME280;14279;50.010;8.260;2023-04-08T10:05:36;101161.06;;;11.50;65.63
26657;BME280;14279;50.010;8.260;2023-04-08T10:08:02;101157.56;;;11.51;64.54
26657;BME280;14279;50.010;8.260;2023-04-08T10:10:29;101160.72;;;11.59;65.53
26657;BME280;14279;50.010;8.260;2023-04-08T10:12:54;101158.31;;;11.77;64.90
26657;BME280;14279;50.010;8.260;2023-04-08T10:15:29;101164.44;;;11.76;64.50
26657;BME280;14279;50.010;8.260;2023-04-08T10:20:45;101154.91;;;11.28;64.40
26657;BME280;14279;50.010;8.260;2023-04-08T10:23:13;101157.75;;;11.68;63.24
26657;BME280;14279;50.010;8.260;2023-04-08T10:25:40;101153.97;;;11.77;63.51
26657;BME280;14279;50.010;8.260;2023-04-08T10:30:47;101152.63;;;11.67;62.67
26657;BME280;14279;50.010;8.260;2023-04-08T10:36:08;101140.63;;;11.85;61.12
26657;BME280;14279;50.010;8.260;2023-04-08T10:38:34;101140.22;;;12.18;60.73
26657;BME280;14279;50.010;8.260;2023-04-08T10:40:59;101147.91;;;12.21;59.82
26657;BME280;14279;50.010;8.260;2023-04-08T10:43:25;101140.78;;;12.47;58.76
26657;BME280;14279;50.010;8.260;2023-04-08T10:45:52;101151.91;;;12.30;56.64
26657;BME280;14279;50.010;8.260;2023-04-08T10:48:19;101141.97;;;12.40;55.61
26657;BME280;14279;50.010;8.260;2023-04-08T10:50:59;101147.50;;;12.53;52.95
26657;BME280;14279;50.010;8.260;2023-04-08T10:53:32;101145.16;;;12.26;53.47
26657;BME280;14279;50.010;8.260;2023-04-08T10:56:11;101144.13;;;12.08;54.57
26657;BME280;14279;50.010;8.260;2023-04-08T10:58:54;101141.78;;;12.22;53.48
26657;BME280;14279;50.010;8.260;2023-04-08T11:01:21;101140.00;;;12.45;53.05
26657;BME280;14279;50.010;8.260;2023-04-08T11:03:47;101138.31;;;12.85;52.04
26657;BME280;14279;50.010;8.260;2023-04-08T11:06:13;101142.47;;;12.69;51.51
26657;BME280;14279;50.010;8.260;2023-04-08T11:08:39;101144.34;;;11.79;52.20
26657;BME280;14279;50.010;8.260;2023-04-08T11:11:06;101138.75;;;11.88;52.71
26657;BME280;14279;50.010;8.260;2023-04-08T11:13:34;101141.94;;;11.95;53.10
26657;BME280;14279;50.010;8.260;2023-04-08T11:16:00;101139.03;;;11.81;53.05
26657;BME280;14279;50.010;8.260;2023-04-08T11:18:26;101134.91;;;11.97;53.17
26657;BME280;14279;50.010;8.260;2023-04-08T11:20:52;101138.63;;;12.36;52.63
26657;BME280;14279;50.010;8.260;2023-04-08T11:23:18;101138.31;;;12.01;52.59
26657;BME280;14279;50.010;8.260;2023-04-08T11:25:45;101140.28;;;11.70;52.45
26657;BME280;14279;50.010;8.260;2023-04-08T11:28:14;101140.59;;;11.63;53.31
26657;BME280;14279;50.010;8.260;2023-04-08T11:30:40;101145.72;;;11.42;54.06
26657;BME280;14279;50.010;8.260;2023-04-08T11:33:08;101139.38;;;11.71;53.64
26657;BME280;14279;50.010;8.260;2023-04-08T11:35:38;101136.09;;;12.12;52.71
26657;BME280;14279;50.010;8.260;2023-04-08T11:38:04;101133.22;;;12.61;52.34
26657;BME280;14279;50.010;8.260;2023-04-08T11:40:29;101126.13;;;12.22;51.94
26657;BME280;14279;50.010;8.260;2023-04-08T11:42:55;101126.59;;;12.53;51.09
26657;BME280;14279;50.010;8.260;2023-04-08T11:45:20;101125.66;;;12.76;51.08
26657;BME280;14279;50.010;8.260;2023-04-08T11:47:49;101131.47;;;12.62;51.48
26657;BME280;14279;50.010;8.260;2023-04-08T11:50:25;101128.47;;;12.51;52.25
26657;BME280;14279;50.010;8.260;2023-04-08T11:52:51;101135.94;;;13.00;51.77
26657;BME280;14279;50.010;8.260;2023-04-08T11:57:50;101129.97;;;13.17;50.11
26657;BME280;14279;50.010;8.260;2023-04-08T12:00:19;101122.06;;;13.37;49.97
26657;BME280;14279;50.010;8.260;2023-04-08T12:02:45;101119.47;;;13.37;50.15
26657;BME280;14279;50.010;8.260;2023-04-08T12:05:14;101121.78;;;12.85;50.64
26657;BME280;14279;50.010;8.260;2023-04-08T12:07:40;101107.66;;;12.89;51.38
26657;BME280;14279;50.010;8.260;2023-04-08T12:10:23;101114.81;;;13.04;51.15
26657;BME280;14279;50.010;8.260;2023-04-08T12:13:09;101102.38;;;12.90;51.38
26657;BME280;14279;50.010;8.260;2023-04-08T12:15:34;101111.75;;;12.75;53.26
26657;BME280;14279;50.010;8.260;2023-04-08T12:18:00;101105.59;;;12.56;53.44
26657;BME280;14279;50.010;8.260;2023-04-08T12:20:57;101112.06;;;12.47;53.80
26657;BME280;14279;50.010;8.260;2023-04-08T12:23:56;101110.38;;;13.06;53.02
26657;BME280;14279;50.010;8.260;2023-04-08T12:26:54;101104.06;;;13.50;52.03
26657;BME280;14279;50.010;8.260;2023-04-08T12:29:27;101106.72;;;13.11;52.68
26657;BME280;14279;50.010;8.260;2023-04-08T12:31:58;101104.50;;;13.01;53.51
26657;BME280;14279;50.010;8.260;2023-04-08T12:34:23;101107.25;;;12.58;54.56
26657;BME280;14279;50.010;8.260;2023-04-08T12:36:49;101114.75;;;12.45;54.06
26657;BME280;14279;50.010;8.260;2023-04-08T12:39:14;101115.00;;;12.60;54.06
26657;BME280;14279;50.010;8.260;2023-04-08T12:41:39;101110.47;;;12.43;55.99
26657;BME280;14279;50.010;8.260;2023-04-08T12:44:05;101109.84;;;12.79;54.69
26657;BME280;14279;50.010;8.260;2023-04-08T12:46:30;101105.78;;;12.72;54.90
26657;BME280;14279;50.010;8.260;2023-04-08T12:48:56;101104.31;;;13.06;53.96
26657;BME280;14279;50.010;8.260;2023-04-08T12:51:21;101108.84;;;12.82;54.19
26657;BME280;14279;50.010;8.260;2023-04-08T12:53:47;101105.59;;;12.56;54.12
26657;BME280;14279;50.010;8.260;2023-04-08T12:56:15;101104.94;;;12.71;54.09
26657;BME280;14279;50.010;8.260;2023-04-08T12:58:41;101106.22;;;13.21;53.51
26657;BME280;14279;50.010;8.260;2023-04-08T13:01:12;101105.78;;;13.12;53.08
26657;BME280;14279;50.010;8.260;2023-04-08T13:03:40;101110.06;;;13.33;53.16
26657;BME280;14279;50.010;8.260;2023-04-08T13:06:06;101102.19;;;13.14;52.57
26657;BME280;14279;50.010;8.260;2023-04-08T13:08:32;101110.03;;;13.14;53.02
26657;BME280;14279;50.010;8.260;2023-04-08T13:10:57;101108.41;;;13.12;53.43
26657;BME280;14279;50.010;8.260;2023-04-08T13:13:25;101106.00;;;13.26;53.16
26657;BME280;14279;50.010;8.260;2023-04-08T13:15:50;101110.03;;;13.14;52.98
26657;BME280;14279;50.010;8.260;2023-04-08T13:18:33;101105.06;;;13.48;51.96
26657;BME280;14279;50.010;8.260;2023-04-08T13:20:58;101100.47;;;13.53;51.61
26657;BME280;14279;50.010;8.260;2023-04-08T13:23:23;101105.22;;;13.45;51.52
26657;BME280;14279;50.010;8.260;2023-04-08T13:25:49;101107.94;;;13.22;52.62
26657;BME280;14279;50.010;8.260;2023-04-08T13:28:14;101104.31;;;13.25;52.29
26657;BME280;14279;50.010;8.260;2023-04-08T13:30:39;101108.78;;;12.83;52.83
26657;BME280;14279;50.010;8.260;2023-04-08T13:33:05;101103.59;;;13.02;53.21
26657;BME280;14279;50.010;8.260;2023-04-08T13:35:30;101105.34;;;13.42;52.04
26657;BME280;14279;50.010;8.260;2023-04-08T13:41:18;101104.69;;;13.36;52.45
26657;BME280;14279;50.010;8.260;2023-04-08T13:43:45;101105.38;;;13.40;52.74
26657;BME280;14279;50.010;8.260;2023-04-08T13:46:10;101107.28;;;13.36;53.04
26657;BME280;14279;50.010;8.260;2023-04-08T13:48:35;101108.84;;;13.21;53.32
26657;BME280;14279;50.010;8.260;2023-04-08T13:51:01;101106.94;;;13.25;52.95
26657;BME280;14279;50.010;8.260;2023-04-08T13:53:26;101104.44;;;13.43;52.79
26657;BME280;14279;50.010;8.260;2023-04-08T13:55:51;101108.16;;;13.18;53.39
26657;BME280;14279;50.010;8.260;2023-04-08T13:58:19;101101.75;;;13.04;53.97
26657;BME280;14279;50.010;8.260;2023-04-08T14:00:45;101103.09;;;13.13;53.73
26657;BME280;14279;50.010;8.260;2023-04-08T14:03:11;101098.22;;;13.45;53.32
26657;BME280;14279;50.010;8.260;2023-04-08T14:05:36;101100.16;;;13.78;52.60
26657;BME280;14279;50.010;8.260;2023-04-08T14:08:01;101094.50;;;14.23;51.74
26657;BME280;14279;50.010;8.260;2023-04-08T14:10:27;101100.88;;;14.00;51.89